sensor_id;sensor_type;location;lat;lon;timestamp;pressure;altitude;pressure_sealevel;temperature;humidity
4528;BME280;62320;51.520;6.818;2022-11-20T00:04:50;100847.16;;;-1.37;83.10
4528;BME280;62320;51.520;6.818;2022-11-20T00:14:52;100833.25;;;-1.46;83.20
4528;BME280;62320;51.520;6.818;2022-11-20T00:24:53;100831.84;;;-1.57;85.08
4528;BME280;62320;51.520;6.818;2022-11-20T00:34:55;100834.25;;;-1.60;85.16
4528;BME280;62320;51.520;6.818;2022-11-20T00:44:56;100830.09;;;-1.75;86.34
4528;BME280;62320;51.520;6.818;2022-11-20T00:54:57;100823.69;;;-1.85;86.41
4528;BME280;62320;51.520;6.818;2022-11-20T01:04:59;100819.75;;;-1.96;88.52
4528;BME280;62320;51.520;6.818;2022-11-20T01:15:00;100812.28;;;-1.93;86.25
4528;BME280;62320;51.520;6.818;2022-11-20T01:25:01;100798.38;;;-2.01;84.93
4528;BME280;62320;51.520;6.818;2022-11-20T01:35:03;100793.47;;;-1.98;85.03
4528;BME280;62320;51.520;6.818;2022-11-20T01:55:50;100802.91;;;-2.28;85.88
4528;BME280;62320;51.520;6.818;2022-11-20T02:06:40;100806.63;;;-2.21;86.67
4528;BME280;62320;51.520;6.818;2022-11-20T02:16:46;100783.66;;;-2.08;83.97
4528;BME280;62320;51.520;6.818;2022-11-20T02:26:57;100772.97;;;-2.02;84.37
4528;BME280;62320;51.520;6.818;2022-11-20T02:37:00;100763.28;;;-1.93;85.52
4528;BME280;62320;51.520;6.818;2022-11-20T02:47:01;100757.75;;;-1.86;85.46
4528;BME280;62320;51.520;6.818;2022-11-20T02:57:03;100755.72;;;-1.76;85.58
4528;BME280;62320;51.520;6.818;2022-11-20T03:07:04;100752.53;;;-1.72;86.15
4528;BME280;62320;51.520;6.818;2022-11-20T03:17:06;100749.16;;;-1.55;87.13
4528;BME280;62320;51.520;6.818;2022-11-20T03:27:07;100750.59;;;-1.42;89.20
4528;BME280;62320;51.520;6.818;2022-11-20T03:37:08;100747.31;;;-1.39;88.70
4528;BME280;62320;51.520;6.818;2022-11-20T03:47:10;100741.81;;;-1.31;89.21
4528;BME280;62320;51.520;6.818;2022-11-20T03:57:11;100736.28;;;-1.22;88.82
4528;BME280;62320;51.520;6.818;2022-11-20T04:07:13;100733.19;;;-1.17;88.66
4528;BME280;62320;51.520;6.818;2022-11-20T04:17:14;100739.56;;;-1.07;89.32
4528;BME280;62320;51.520;6.818;2022-11-20T04:27:16;100736.28;;;-1.05;88.93
4528;BME280;62320;51.520;6.818;2022-11-20T04:37:17;100730.25;;;-1.07;88.92
4528;BME280;62320;51.520;6.818;2022-11-20T04:47:18;100726.00;;;-1.08;89.48
4528;BME280;62320;51.520;6.818;2022-11-20T04:57:20;100723.09;;;-1.15;89.53
4528;BME280;62320;51.520;6.818;2022-11-20T05:07:21;100728.47;;;-1.27;89.79
4528;BME280;62320;51.520;6.818;2022-11-20T05:17:23;100719.34;;;-1.23;89.56
4528;BME280;62320;51.520;6.818;2022-11-20T05:27:24;100719.00;;;-1.31;89.72
4528;BME280;62320;51.520;6.818;2022-11-20T05:37:25;100715.28;;;-1.20;90.07
4528;BME280;62320;51.520;6.818;2022-11-20T05:47:32;100726.50;;;-1.15;90.87
4528;BME280;62320;51.520;6.818;2022-11-20T05:57:34;100722.09;;;-1.19;89.47
4528;BME280;62320;51.520;6.818;2022-11-20T06:07:35;100715.28;;;-1.20;89.99
4528;BME280;62320;51.520;6.818;2022-11-20T06:17:37;100711.06;;;-1.19;89.91
4528;BME280;62320;51.520;6.818;2022-11-20T06:27:38;100734.56;;;-1.23;88.71
4528;BME280;62320;51.520;6.818;2022-11-20T06:37:39;100727.94;;;-1.20;91.76
4528;BME280;62320;51.520;6.818;2022-11-20T06:47:41;100731.16;;;-1.24;89.97
4528;BME280;62320;51.520;6.818;2022-11-20T06:57:42;100737.31;;;-1.19;91.66
4528;BME280;62320;51.520;6.818;2022-11-20T07:07:43;100745.00;;;-1.17;91.14
4528;BME280;62320;51.520;6.818;2022-11-20T07:17:45;100756.53;;;-1.24;90.02
4528;BME280;62320;51.520;6.818;2022-11-20T07:27:47;100757.59;;;-1.19;91.15
4528;BME280;62320;51.520;6.818;2022-11-20T07:37:48;100752.66;;;-1.16;91.12
4528;BME280;62320;51.520;6.818;2022-11-20T07:47:50;100739.03;;;-1.18;88.51
4528;BME280;62320;51.520;6.818;2022-11-20T07:57:55;100724.13;;;-1.12;87.92
4528;BME280;62320;51.520;6.818;2022-11-20T08:07:58;100729.41;;;-1.07;89.41
4528;BME280;62320;51.520;6.818;2022-11-20T08:18:03;100707.41;;;-1.07;88.06
4528;BME280;62320;51.520;6.818;2022-11-20T08:28:25;100721.63;;;-1.10;89.68
4528;BME280;62320;51.520;6.818;2022-11-20T08:38:26;100728.69;;;-1.05;89.29
4528;BME280;62320;51.520;6.818;2022-11-20T08:48:28;100725.41;;;-1.02;89.61
4528;BME280;62320;51.520;6.818;2022-11-20T08:58:29;100736.69;;;-0.96;88.57
4528;BME280;62320;51.520;6.818;2022-11-20T09:08:31;100727.38;;;-0.78;90.93
4528;BME280;62320;51.520;6.818;2022-11-20T09:18:34;100723.22;;;-0.56;87.85
4528;BME280;62320;51.520;6.818;2022-11-20T09:28:39;100698.34;;;-0.25;88.30
4528;BME280;62320;51.520;6.818;2022-11-20T09:38:41;100690.84;;;-0.02;87.67
4528;BME280;62320;51.520;6.818;2022-11-20T10:09:41;100669.59;;;0.61;89.71
4528;BME280;62320;51.520;6.818;2022-11-20T10:20:37;100670.16;;;0.99;92.60
4528;BME280;62320;51.520;6.818;2022-11-20T10:30:30;100646.41;;;1.22;92.03
4528;BME280;62320;51.520;6.818;2022-11-20T10:40:35;100621.97;;;1.77;92.50
4528;BME280;62320;51.520;6.818;2022-11-20T10:51:35;100625.09;;;1.95;92.23
4528;BME280;62320;51.520;6.818;2022-11-20T11:01:18;100617.59;;;2.00;91.45
4528;BME280;62320;51.520;6.818;2022-11-20T11:11:23;100601.06;;;2.41;92.13
4528;BME280;62320;51.520;6.818;2022-11-20T11:21:25;100581.25;;;2.92;91.83
4528;BME280;62320;51.520;6.818;2022-11-20T11:31:30;100572.78;;;3.25;91.79
4528;BME280;62320;51.520;6.818;2022-11-20T11:41:33;100553.53;;;3.38;91.87
4528;BME280;62320;51.520;6.818;2022-11-20T12:03:03;100510.00;;;3.69;89.99
4528;BME280;62320;51.520;6.818;2022-11-20T12:12:43;100499.38;;;3.88;90.02
4528;BME280;62320;51.520;6.818;2022-11-20T12:22:57;100482.59;;;4.02;89.83
4528;BME280;62320;51.520;6.818;2022-11-20T12:33:31;100483.56;;;4.07;89.61
4528;BME280;62320;51.520;6.818;2022-11-20T12:44:02;100468.59;;;4.25;89.84
4528;BME280;62320;51.520;6.818;2022-11-20T13:05:07;100425.34;;;4.36;88.48
4528;BME280;62320;51.520;6.818;2022-11-20T13:15:37;100404.38;;;4.57;90.17
4528;BME280;62320;51.520;6.818;2022-11-20T13:25:40;100403.63;;;4.61;89.76
4528;BME280;62320;51.520;6.818;2022-11-20T13:35:42;100376.28;;;4.61;89.47
4528;BME280;62320;51.520;6.818;2022-11-20T13:46:12;100369.91;;;4.87;91.89
4528;BME280;62320;51.520;6.818;2022-11-20T14:06:30;100324.56;;;4.82;93.13
4528;BME280;62320;51.520;6.818;2022-11-20T14:16:35;100306.53;;;4.74;91.53
4528;BME280;62320;51.520;6.818;2022-11-20T14:26:41;100279.19;;;4.72;90.80
4528;BME280;62320;51.520;6.818;2022-11-20T14:36:44;100264.53;;;4.63;92.50
4528;BME280;62320;51.520;6.818;2022-11-20T14:46:46;100248.31;;;4.64;92.12
4528;BME280;62320;51.520;6.818;2022-11-20T14:56:58;100222.63;;;4.58;91.36
4528;BME280;62320;51.520;6.818;2022-11-20T15:07:00;100216.59;;;4.53;92.37
4528;BME280;62320;51.520;6.818;2022-11-20T15:17:02;100192.66;;;4.50;93.03
4528;BME280;62320;51.520;6.818;2022-11-20T15:27:03;100174.69;;;4.48;93.31
4528;BME280;62320;51.520;6.818;2022-11-20T15:37:04;100162.69;;;4.43;93.49
4528;BME280;62320;51.520;6.818;2022-11-20T15:47:07;100141.34;;;4.44;94.32
4528;BME280;62320;51.520;6.818;2022-11-20T15:57:10;100139.66;;;4.43;94.94
4528;BME280;62320;51.520;6.818;2022-11-20T16:07:12;100135.34;;;4.42;95.50
4528;BME280;62320;51.520;6.818;2022-11-20T16:17:14;100125.94;;;4.39;95.43
4528;BME280;62320;51.520;6.818;2022-11-20T16:27:15;100115.69;;;4.38;95.31
4528;BME280;62320;51.520;6.818;2022-11-20T16:37:17;100102.81;;;4.33;94.20
4528;BME280;62320;51.520;6.818;2022-11-20T16:47:18;100073.75;;;4.29;94.10
4528;BME280;62320;51.520;6.818;2022-11-20T16:57:20;100050.75;;;4.31;94.79
4528;BME280;62320;51.520;6.818;2022-11-20T17:07:21;100029.44;;;4.32;96.13
4528;BME280;62320;51.520;6.818;2022-11-20T17:17:23;100014.94;;;4.32;95.80
4528;BME280;62320;51.520;6.818;2022-11-20T17:27:24;99980.88;;;4.35;95.85
4528;BME280;62320;51.520;6.818;2022-11-20T17:37:26;99945.03;;;4.37;96.32
4528;BME280;62320;51.520;6.818;2022-11-20T17:47:28;99927.19;;;4.40;96.55
4528;BME280;62320;51.520;6.818;2022-11-20T17:57:29;99899.94;;;4.45;97.28
4528;BME280;62320;51.520;6.818;2022-11-20T18:07:51;99882.94;;;4.51;98.13
4528;BME280;62320;51.520;6.818;2022-11-20T18:17:53;99851.44;;;4.58;97.79
4528;BME280;62320;51.520;6.818;2022-11-20T18:27:55;99845.69;;;4.83;100.00
4528;BME280;62320;51.520;6.818;2022-11-20T18:37:56;99827.78;;;4.85;99.74
4528;BME280;62320;51.520;6.818;2022-11-20T18:47:58;99803.09;;;4.97;99.71
4528;BME280;62320;51.520;6.818;2022-11-20T18:57:59;99784.38;;;5.07;99.79
4528;BME280;62320;51.520;6.818;2022-11-20T19:08:00;99761.28;;;4.97;97.11
4528;BME280;62320;51.520;6.818;2022-11-20T19:18:02;99742.59;;;5.13;97.71
4528;BME280;62320;51.520;6.818;2022-11-20T19:28:03;99714.41;;;5.13;96.37
4528;BME280;62320;51.520;6.818;2022-11-20T19:38:05;99711.94;;;5.43;99.16
4528;BME280;62320;51.520;6.818;2022-11-20T19:48:06;99704.25;;;5.39;96.28
4528;BME280;62320;51.520;6.818;2022-11-20T19:58:08;99701.75;;;5.58;98.81
4528;BME280;62320;51.520;6.818;2022-11-20T20:08:10;99705.22;;;5.74;98.53
4528;BME280;62320;51.520;6.818;2022-11-20T20:18:17;99712.97;;;5.89;99.45
4528;BME280;62320;51.520;6.818;2022-11-20T20:28:18;99731.84;;;6.21;100.00
4528;BME280;62320;51.520;6.818;2022-11-20T20:38:19;99760.94;;;6.32;100.00
4528;BME280;62320;51.520;6.818;2022-11-20T20:48:23;99776.34;;;6.40;100.00
4528;BME280;62320;51.520;6.818;2022-11-20T20:58:25;99786.59;;;6.38;100.00
4528;BME280;62320;51.520;6.818;2022-11-20T21:08:27;99825.09;;;6.32;100.00
4528;BME280;62320;51.520;6.818;2022-11-20T21:18:28;99841.34;;;6.19;100.00
4528;BME280;62320;51.520;6.818;2022-11-20T21:28:31;99855.00;;;6.06;100.00
4528;BME280;62320;51.520;6.818;2022-11-20T21:38:33;99866.06;;;5.96;100.00
4528;BME280;62320;51.520;6.818;2022-11-20T21:48:37;99881.38;;;5.84;100.00
4528;BME280;62320;51.520;6.818;2022-11-20T21:58:41;99890.66;;;5.64;100.00
4528;BME280;62320;51.520;6.818;2022-11-20T22:08:43;99898.31;;;5.53;100.00
4528;BME280;62320;51.520;6.818;2022-11-20T22:18:49;99904.19;;;5.43;100.00
4528;BME280;62320;51.520;6.818;2022-11-20T22:28:53;99914.28;;;5.21;100.00
4528;BME280;62320;51.520;6.818;2022-11-20T22:38:55;99927.06;;;5.16;100.00
4528;BME280;62320;51.520;6.818;2022-11-20T22:49:02;99950.88;;;5.03;100.00
4528;BME280;62320;51.520;6.818;2022-11-20T22:59:03;99958.44;;;4.89;100.00
4528;BME280;62320;51.520;6.818;2022-11-20T23:09:06;99978.81;;;4.82;100.00
4528;BME280;62320;51.520;6.818;2022-11-20T23:19:11;99989.69;;;4.60;100.00
4528;BME280;62320;51.520;6.818;2022-11-20T23:29:13;100001.56;;;4.53;100.00
4528;BME280;62320;51.520;6.818;2022-11-20T23:39:14;100007.38;;;4.40;100.00
4528;BME280;62320;51.520;6.818;2022-11-20T23:49:16;100021.06;;;4.44;100.00
4528;BME280;62320;51.520;6.818;2022-11-20T23:59:18;100030.31;;;4.34;100.00
